Binfield, United Kingdom
Current Conditions -  °F | °C
As of 6:50 AM on Friday 31 Oct 2014 (Local Time) from EGLF Reporting Station
Haze Haze  
Wind Chill: 12°   Ceiling: Unl
Heat Index: 12°   Visibility: 2.2mi
Dew Point: 12°   Wind: 3mph
Humidity: 100%   Direction: 140°SE
Pressure: 30.03"   Gusts: NA
Location:  51.42°N, 0.78°W
Report Text: EGLF 310650Z 14003KT 3600 BR NSC 12/12 Q1017
Loading
Personal Weather Stations






























Interactive Weather Map
Tropical Storm Tracking
New forecast layout! Learn more

10-Day Weather Forecast

Advertisements
Track Severe Weather on mobile